sensor_id;sensor_type;location;lat;lon;timestamp;pressure;altitude;pressure_sealevel;temperature;humidity
19086;BME280;9675;51.538;6.728;2023-12-20T00:02:17;101152.00;;;7.44;100.00
19086;BME280;9675;51.538;6.728;2023-12-20T00:04:44;101151.00;;;7.42;100.00
19086;BME280;9675;51.538;6.728;2023-12-20T00:07:11;101162.94;;;7.42;100.00
19086;BME280;9675;51.538;6.728;2023-12-20T00:09:40;101165.50;;;7.42;100.00
19086;BME280;9675;51.538;6.728;2023-12-20T00:12:07;101163.75;;;7.41;100.00
19086;BME280;9675;51.538;6.728;2023-12-20T00:14:34;101162.84;;;7.40;100.00
19086;BME280;9675;51.538;6.728;2023-12-20T00:17:02;101166.19;;;7.39;100.00
19086;BME280;9675;51.538;6.728;2023-12-20T00:19:29;101173.00;;;7.39;100.00
19086;BME280;9675;51.538;6.728;2023-12-20T00:21:56;101171.09;;;7.36;100.00
19086;BME280;9675;51.538;6.728;2023-12-20T00:24:23;101173.56;;;7.35;100.00
19086;BME280;9675;51.538;6.728;2023-12-20T00:26:51;101175.34;;;7.36;100.00
19086;BME280;9675;51.538;6.728;2023-12-20T00:29:18;101183.03;;;7.36;100.00
19086;BME280;9675;51.538;6.728;2023-12-20T00:31:45;101183.81;;;7.35;100.00
19086;BME280;9675;51.538;6.728;2023-12-20T00:34:12;101181.03;;;7.32;100.00
19086;BME280;9675;51.538;6.728;2023-12-20T00:36:39;101184.47;;;7.32;100.00
19086;BME280;9675;51.538;6.728;2023-12-20T00:39:06;101187.75;;;7.30;100.00
19086;BME280;9675;51.538;6.728;2023-12-20T00:41:33;101200.56;;;7.30;100.00
19086;BME280;9675;51.538;6.728;2023-12-20T00:44:02;101193.66;;;7.29;100.00
19086;BME280;9675;51.538;6.728;2023-12-20T00:46:29;101192.63;;;7.26;100.00
19086;BME280;9675;51.538;6.728;2023-12-20T00:48:56;101196.78;;;7.24;100.00
19086;BME280;9675;51.538;6.728;2023-12-20T00:51:23;101193.34;;;7.24;100.00
19086;BME280;9675;51.538;6.728;2023-12-20T00:53:50;101193.22;;;7.22;100.00
19086;BME280;9675;51.538;6.728;2023-12-20T00:56:20;101195.00;;;7.23;100.00
19086;BME280;9675;51.538;6.728;2023-12-20T00:58:47;101185.41;;;7.21;100.00
19086;BME280;9675;51.538;6.728;2023-12-20T01:01:15;101191.44;;;7.21;100.00
19086;BME280;9675;51.538;6.728;2023-12-20T01:03:43;101191.00;;;7.15;100.00
19086;BME280;9675;51.538;6.728;2023-12-20T01:06:10;101191.25;;;7.18;100.00
19086;BME280;9675;51.538;6.728;2023-12-20T01:08:37;101181.00;;;7.18;100.00
19086;BME280;9675;51.538;6.728;2023-12-20T01:11:05;101201.47;;;7.18;100.00
19086;BME280;9675;51.538;6.728;2023-12-20T01:13:32;101199.69;;;7.17;100.00
19086;BME280;9675;51.538;6.728;2023-12-20T01:15:59;101197.91;;;7.16;100.00
19086;BME280;9675;51.538;6.728;2023-12-20T01:18:28;101203.03;;;7.16;100.00
19086;BME280;9675;51.538;6.728;2023-12-20T01:20:55;101201.25;;;7.15;100.00
19086;BME280;9675;51.538;6.728;2023-12-20T01:23:22;101199.50;;;7.14;100.00
19086;BME280;9675;51.538;6.728;2023-12-20T01:25:49;101203.63;;;7.12;100.00
19086;BME280;9675;51.538;6.728;2023-12-20T01:28:16;101209.75;;;7.14;100.00
19086;BME280;9675;51.538;6.728;2023-12-20T01:30:43;101214.63;;;7.11;100.00
19086;BME280;9675;51.538;6.728;2023-12-20T01:33:10;101206.84;;;7.10;100.00
19086;BME280;9675;51.538;6.728;2023-12-20T01:35:39;101206.75;;;7.08;100.00
19086;BME280;9675;51.538;6.728;2023-12-20T01:38:06;101204.19;;;7.08;100.00
19086;BME280;9675;51.538;6.728;2023-12-20T01:40:33;101210.09;;;7.07;100.00
19086;BME280;9675;51.538;6.728;2023-12-20T01:43:00;101205.75;;;7.06;100.00
19086;BME280;9675;51.538;6.728;2023-12-20T01:45:28;101197.97;;;7.05;100.00
19086;BME280;9675;51.538;6.728;2023-12-20T01:47:56;101191.97;;;7.04;100.00
19086;BME280;9675;51.538;6.728;2023-12-20T01:50:24;101193.53;;;7.02;100.00
19086;BME280;9675;51.538;6.728;2023-12-20T01:52:55;101193.34;;;6.99;100.00
19086;BME280;9675;51.538;6.728;2023-12-20T01:55:24;101210.44;;;7.00;100.00
19086;BME280;9675;51.538;6.728;2023-12-20T01:57:52;101210.25;;;6.97;100.00
19086;BME280;9675;51.538;6.728;2023-12-20T02:00:21;101203.34;;;6.96;100.00
19086;BME280;9675;51.538;6.728;2023-12-20T02:02:50;101200.66;;;6.95;100.00
19086;BME280;9675;51.538;6.728;2023-12-20T02:05:20;101196.34;;;6.94;100.00
19086;BME280;9675;51.538;6.728;2023-12-20T02:07:47;101201.34;;;6.92;100.00
19086;BME280;9675;51.538;6.728;2023-12-20T02:10:16;101200.34;;;6.90;100.00
19086;BME280;9675;51.538;6.728;2023-12-20T02:12:44;101205.28;;;6.87;100.00
19086;BME280;9675;51.538;6.728;2023-12-20T02:15:11;101211.16;;;6.86;100.00
19086;BME280;9675;51.538;6.728;2023-12-20T02:17:39;101205.94;;;6.84;100.00
19086;BME280;9675;51.538;6.728;2023-12-20T02:20:07;101212.63;;;6.82;100.00
19086;BME280;9675;51.538;6.728;2023-12-20T02:22:36;101209.19;;;6.82;100.00
19086;BME280;9675;51.538;6.728;2023-12-20T02:25:03;101204.72;;;6.79;100.00
19086;BME280;9675;51.538;6.728;2023-12-20T02:27:31;101200.28;;;6.77;100.00
19086;BME280;9675;51.538;6.728;2023-12-20T02:29:58;101200.94;;;6.74;100.00
19086;BME280;9675;51.538;6.728;2023-12-20T02:32:25;101213.66;;;6.73;100.00
19086;BME280;9675;51.538;6.728;2023-12-20T02:34:53;101210.97;;;6.71;100.00
19086;BME280;9675;51.538;6.728;2023-12-20T02:37:20;101211.63;;;6.69;100.00
19086;BME280;9675;51.538;6.728;2023-12-20T02:39:49;101208.19;;;6.68;100.00
19086;BME280;9675;51.538;6.728;2023-12-20T02:42:16;101211.44;;;6.66;100.00
19086;BME280;9675;51.538;6.728;2023-12-20T02:44:43;101212.22;;;6.65;100.00
19086;BME280;9675;51.538;6.728;2023-12-20T02:47:10;101207.66;;;6.61;100.00
19086;BME280;9675;51.538;6.728;2023-12-20T02:49:37;101211.88;;;6.60;100.00
19086;BME280;9675;51.538;6.728;2023-12-20T02:52:05;101212.56;;;6.58;100.00
19086;BME280;9675;51.538;6.728;2023-12-20T02:54:32;101219.38;;;6.57;100.00
19086;BME280;9675;51.538;6.728;2023-12-20T02:57:00;101214.91;;;6.55;100.00
19086;BME280;9675;51.538;6.728;2023-12-20T02:59:27;101210.56;;;6.54;100.00
19086;BME280;9675;51.538;6.728;2023-12-20T03:01:54;101210.34;;;6.51;100.00
19086;BME280;9675;51.538;6.728;2023-12-20T03:04:21;101210.34;;;6.51;100.00
19086;BME280;9675;51.538;6.728;2023-12-20T03:06:48;101212.78;;;6.49;100.00
19086;BME280;9675;51.538;6.728;2023-12-20T03:09:16;101210.16;;;6.48;100.00
19086;BME280;9675;51.538;6.728;2023-12-20T03:11:43;101217.03;;;6.49;100.00
19086;BME280;9675;51.538;6.728;2023-12-20T03:14:11;101213.47;;;6.47;100.00
19086;BME280;9675;51.538;6.728;2023-12-20T03:16:38;101212.59;;;6.46;100.00
19086;BME280;9675;51.538;6.728;2023-12-20T03:19:05;101202.25;;;6.45;100.00
19086;BME280;9675;51.538;6.728;2023-12-20T03:21:32;101197.69;;;6.40;100.00
19086;BME280;9675;51.538;6.728;2023-12-20T03:23:59;101203.56;;;6.39;100.00
19086;BME280;9675;51.538;6.728;2023-12-20T03:26:26;101200.00;;;6.37;100.00
19086;BME280;9675;51.538;6.728;2023-12-20T03:28:53;101189.69;;;6.36;100.00
19086;BME280;9675;51.538;6.728;2023-12-20T03:31:22;101199.03;;;6.35;100.00
19086;BME280;9675;51.538;6.728;2023-12-20T03:33:49;101192.13;;;6.34;100.00
19086;BME280;9675;51.538;6.728;2023-12-20T03:36:16;101190.47;;;6.35;100.00
19086;BME280;9675;51.538;6.728;2023-12-20T03:38:43;101190.25;;;6.32;100.00
19086;BME280;9675;51.538;6.728;2023-12-20T03:41:11;101188.34;;;6.29;100.00
19086;BME280;9675;51.538;6.728;2023-12-20T03:43:38;101189.25;;;6.30;100.00
19086;BME280;9675;51.538;6.728;2023-12-20T03:46:05;101192.56;;;6.29;100.00
19086;BME280;9675;51.538;6.728;2023-12-20T03:48:33;101189.91;;;6.27;100.00
19086;BME280;9675;51.538;6.728;2023-12-20T03:51:00;101175.91;;;6.22;100.00
19086;BME280;9675;51.538;6.728;2023-12-20T03:53:27;101185.34;;;6.23;100.00
19086;BME280;9675;51.538;6.728;2023-12-20T03:55:54;101196.34;;;6.22;100.00
19086;BME280;9675;51.538;6.728;2023-12-20T03:58:21;101183.38;;;6.19;100.00
19086;BME280;9675;51.538;6.728;2023-12-20T04:00:48;101175.69;;;6.19;100.00
19086;BME280;9675;51.538;6.728;2023-12-20T04:03:15;101181.47;;;6.17;100.00
19086;BME280;9675;51.538;6.728;2023-12-20T04:05:44;101178.81;;;6.15;100.00
19086;BME280;9675;51.538;6.728;2023-12-20T04:08:11;101171.91;;;6.14;100.00
19086;BME280;9675;51.538;6.728;2023-12-20T04:10:38;101175.25;;;6.13;100.00
19086;BME280;9675;51.538;6.728;2023-12-20T04:13:05;101179.47;;;6.13;100.00
19086;BME280;9675;51.538;6.728;2023-12-20T04:15:32;101181.03;;;6.11;100.00
19086;BME280;9675;51.538;6.728;2023-12-20T04:18:00;101187.03;;;6.11;100.00
19086;BME280;9675;51.538;6.728;2023-12-20T04:20:27;101184.25;;;6.08;100.00
19086;BME280;9675;51.538;6.728;2023-12-20T04:22:55;101178.16;;;6.06;100.00
19086;BME280;9675;51.538;6.728;2023-12-20T04:25:22;101191.72;;;6.05;100.00
19086;BME280;9675;51.538;6.728;2023-12-20T04:27:49;101188.13;;;6.03;100.00
19086;BME280;9675;51.538;6.728;2023-12-20T04:30:16;101192.25;;;6.01;100.00
19086;BME280;9675;51.538;6.728;2023-12-20T04:32:43;101199.13;;;6.02;100.00
19086;BME280;9675;51.538;6.728;2023-12-20T04:35:10;101190.50;;;6.00;100.00
19086;BME280;9675;51.538;6.728;2023-12-20T04:37:37;101204.03;;;5.99;100.00
19086;BME280;9675;51.538;6.728;2023-12-20T04:40:07;101192.03;;;5.98;100.00
19086;BME280;9675;51.538;6.728;2023-12-20T04:42:34;101185.25;;;5.98;100.00
19086;BME280;9675;51.538;6.728;2023-12-20T04:45:02;101187.81;;;5.98;100.00
19086;BME280;9675;51.538;6.728;2023-12-20T04:47:29;101201.25;;;5.96;100.00
19086;BME280;9675;51.538;6.728;2023-12-20T04:49:56;101194.38;;;5.95;100.00
19086;BME280;9675;51.538;6.728;2023-12-20T04:52:23;101195.91;;;5.93;100.00
19086;BME280;9675;51.538;6.728;2023-12-20T04:54:50;101193.38;;;5.93;100.00
19086;BME280;9675;51.538;6.728;2023-12-20T04:57:19;101187.34;;;5.92;100.00
19086;BME280;9675;51.538;6.728;2023-12-20T04:59:46;101187.22;;;5.91;100.00
19086;BME280;9675;51.538;6.728;2023-12-20T05:02:13;101185.47;;;5.90;100.00
19086;BME280;9675;51.538;6.728;2023-12-20T05:04:40;101182.94;;;5.90;100.00
19086;BME280;9675;51.538;6.728;2023-12-20T05:07:07;101193.03;;;5.88;100.00
19086;BME280;9675;51.538;6.728;2023-12-20T05:09:34;101189.59;;;5.88;100.00
19086;BME280;9675;51.538;6.728;2023-12-20T05:12:01;101190.47;;;5.88;100.00
19086;BME280;9675;51.538;6.728;2023-12-20T05:14:29;101186.13;;;5.87;100.00
19086;BME280;9675;51.538;6.728;2023-12-20T05:16:56;101183.41;;;5.86;100.00
19086;BME280;9675;51.538;6.728;2023-12-20T05:19:24;101183.41;;;5.86;100.00
19086;BME280;9675;51.538;6.728;2023-12-20T05:21:52;101179.13;;;5.85;100.00
19086;BME280;9675;51.538;6.728;2023-12-20T05:24:19;101179.88;;;5.84;100.00
19086;BME280;9675;51.538;6.728;2023-12-20T05:26:46;101174.00;;;5.85;100.00
19086;BME280;9675;51.538;6.728;2023-12-20T05:29:13;101169.66;;;5.84;100.00
19086;BME280;9675;51.538;6.728;2023-12-20T05:31:41;101166.22;;;5.83;100.00
19086;BME280;9675;51.538;6.728;2023-12-20T05:34:08;101167.88;;;5.83;100.00
19086;BME280;9675;51.538;6.728;2023-12-20T05:36:36;101162.78;;;5.83;100.00
19086;BME280;9675;51.538;6.728;2023-12-20T05:39:03;101162.78;;;5.83;100.00
19086;BME280;9675;51.538;6.728;2023-12-20T05:41:30;101155.88;;;5.82;100.00
19086;BME280;9675;51.538;6.728;2023-12-20T05:43:57;101166.09;;;5.82;100.00
19086;BME280;9675;51.538;6.728;2023-12-20T05:46:25;101159.19;;;5.81;100.00
19086;BME280;9675;51.538;6.728;2023-12-20T05:48:54;101156.66;;;5.81;100.00
19086;BME280;9675;51.538;6.728;2023-12-20T05:51:21;101166.09;;;5.82;100.00
19086;BME280;9675;51.538;6.728;2023-12-20T05:53:48;101159.19;;;5.81;100.00
19086;BME280;9675;51.538;6.728;2023-12-20T05:56:15;101167.88;;;5.83;100.00
19086;BME280;9675;51.538;6.728;2023-12-20T05:58:42;101161.88;;;5.82;100.00
19086;BME280;9675;51.538;6.728;2023-12-20T06:01:10;101161.09;;;5.83;100.00
19086;BME280;9675;51.538;6.728;2023-12-20T06:03:41;101175.66;;;5.84;100.00
19086;BME280;9675;51.538;6.728;2023-12-20T06:06:10;101174.00;;;5.85;100.00
19086;BME280;9675;51.538;6.728;2023-12-20T06:08:38;101171.31;;;5.83;100.00
19086;BME280;9675;51.538;6.728;2023-12-20T06:11:06;101180.00;;;5.85;100.00
19086;BME280;9675;51.538;6.728;2023-12-20T06:13:33;101179.88;;;5.84;100.00
19086;BME280;9675;51.538;6.728;2023-12-20T06:16:00;101177.31;;;5.84;100.00
19086;BME280;9675;51.538;6.728;2023-12-20T06:18:27;101184.88;;;5.82;100.00
19086;BME280;9675;51.538;6.728;2023-12-20T06:20:55;101189.22;;;5.83;100.00
19086;BME280;9675;51.538;6.728;2023-12-20T06:23:23;101187.44;;;5.82;100.00
19086;BME280;9675;51.538;6.728;2023-12-20T06:25:50;101179.88;;;5.84;100.00
19086;BME280;9675;51.538;6.728;2023-12-20T06:28:17;101186.78;;;5.85;100.00
19086;BME280;9675;51.538;6.728;2023-12-20T06:30:44;101193.66;;;5.86;100.00
19086;BME280;9675;51.538;6.728;2023-12-20T06:33:12;101178.22;;;5.84;100.00
19086;BME280;9675;51.538;6.728;2023-12-20T06:35:39;101188.53;;;5.86;100.00
19086;BME280;9675;51.538;6.728;2023-12-20T06:38:07;101183.69;;;5.89;100.00
19086;BME280;9675;51.538;6.728;2023-12-20T06:40:36;101183.00;;;5.91;100.00
19086;BME280;9675;51.538;6.728;2023-12-20T06:43:03;101188.13;;;5.91;100.00
19086;BME280;9675;51.538;6.728;2023-12-20T06:45:32;101178.81;;;5.92;100.00
19086;BME280;9675;51.538;6.728;2023-12-20T06:47:59;101177.91;;;5.91;100.00
19086;BME280;9675;51.538;6.728;2023-12-20T06:50:26;101181.47;;;5.93;100.00
19086;BME280;9675;51.538;6.728;2023-12-20T06:52:53;101191.03;;;6.08;100.00
19086;BME280;9675;51.538;6.728;2023-12-20T06:55:20;101187.47;;;6.17;100.00
19086;BME280;9675;51.538;6.728;2023-12-20T06:57:48;101189.25;;;6.30;100.00
19086;BME280;9675;51.538;6.728;2023-12-20T07:00:17;101181.13;;;6.35;100.00
19086;BME280;9675;51.538;6.728;2023-12-20T07:02:45;101178.22;;;6.43;100.00
19086;BME280;9675;51.538;6.728;2023-12-20T07:05:16;101182.78;;;6.47;100.00
19086;BME280;9675;51.538;6.728;2023-12-20T07:07:45;101181.53;;;6.53;100.00
19086;BME280;9675;51.538;6.728;2023-12-20T07:10:12;101173.41;;;6.59;100.00
19086;BME280;9675;51.538;6.728;2023-12-20T07:12:40;101168.59;;;6.63;100.00
19086;BME280;9675;51.538;6.728;2023-12-20T07:15:11;101168.94;;;6.68;100.00
19086;BME280;9675;51.538;6.728;2023-12-20T07:17:38;101174.28;;;6.71;100.00
19086;BME280;9675;51.538;6.728;2023-12-20T07:20:07;101178.94;;;6.76;100.00
19086;BME280;9675;51.538;6.728;2023-12-20T07:22:36;101171.38;;;6.78;100.00
19086;BME280;9675;51.538;6.728;2023-12-20T07:25:05;101176.47;;;6.78;100.00
19086;BME280;9675;51.538;6.728;2023-12-20T07:27:32;101168.69;;;6.76;100.00
19086;BME280;9675;51.538;6.728;2023-12-20T07:29:59;101174.47;;;6.74;100.00
19086;BME280;9675;51.538;6.728;2023-12-20T07:32:27;101174.69;;;6.77;100.00
19086;BME280;9675;51.538;6.728;2023-12-20T07:34:55;101176.69;;;6.81;100.00
19086;BME280;9675;51.538;6.728;2023-12-20T07:37:22;101167.78;;;6.88;100.00
19086;BME280;9675;51.538;6.728;2023-12-20T07:39:49;101167.00;;;6.89;100.00
19086;BME280;9675;51.538;6.728;2023-12-20T07:42:16;101170.41;;;6.89;100.00
19086;BME280;9675;51.538;6.728;2023-12-20T07:44:43;101171.31;;;6.90;100.00
19086;BME280;9675;51.538;6.728;2023-12-20T07:47:10;101178.09;;;6.89;100.00
19086;BME280;9675;51.538;6.728;2023-12-20T07:49:42;101179.22;;;6.93;100.00
19086;BME280;9675;51.538;6.728;2023-12-20T07:52:09;101181.06;;;6.95;100.00
19086;BME280;9675;51.538;6.728;2023-12-20T07:54:36;101179.31;;;6.94;100.00
19086;BME280;9675;51.538;6.728;2023-12-20T07:57:04;101173.63;;;6.98;100.00
19086;BME280;9675;51.538;6.728;2023-12-20T07:59:31;101180.31;;;6.96;100.00
19086;BME280;9675;51.538;6.728;2023-12-20T08:01:58;101171.06;;;6.98;100.00
19086;BME280;9675;51.538;6.728;2023-12-20T08:04:25;101166.72;;;6.97;100.00
19086;BME280;9675;51.538;6.728;2023-12-20T08:06:54;101177.75;;;6.96;100.00
19086;BME280;9675;51.538;6.728;2023-12-20T08:09:21;101175.19;;;6.96;100.00
19086;BME280;9675;51.538;6.728;2023-12-20T08:11:49;101165.72;;;6.95;100.00
19086;BME280;9675;51.538;6.728;2023-12-20T08:14:16;101169.88;;;6.93;100.00
19086;BME280;9675;51.538;6.728;2023-12-20T08:16:43;101175.19;;;6.96;100.00
19086;BME280;9675;51.538;6.728;2023-12-20T08:19:10;101173.31;;;6.94;100.00
19086;BME280;9675;51.538;6.728;2023-12-20T08:21:37;101169.75;;;6.92;100.00
19086;BME280;9675;51.538;6.728;2023-12-20T08:24:07;101179.09;;;6.91;100.00
19086;BME280;9675;51.538;6.728;2023-12-20T08:26:34;101174.22;;;6.94;100.00
19086;BME280;9675;51.538;6.728;2023-12-20T08:29:01;101176.97;;;6.97;100.00
19086;BME280;9675;51.538;6.728;2023-12-20T08:31:29;101186.44;;;6.98;100.00
19086;BME280;9675;51.538;6.728;2023-12-20T08:33:56;101191.75;;;7.01;100.00
19086;BME280;9675;51.538;6.728;2023-12-20T08:36:23;101189.97;;;7.00;100.00
19086;BME280;9675;51.538;6.728;2023-12-20T08:38:50;101196.75;;;7.00;100.00
19086;BME280;9675;51.538;6.728;2023-12-20T08:41:18;101192.44;;;6.99;100.00
19086;BME280;9675;51.538;6.728;2023-12-20T08:43:46;101185.72;;;7.01;100.00
19086;BME280;9675;51.538;6.728;2023-12-20T08:46:14;101187.41;;;7.00;100.00
19086;BME280;9675;51.538;6.728;2023-12-20T08:48:41;101196.66;;;6.98;100.00
19086;BME280;9675;51.538;6.728;2023-12-20T08:51:10;101193.09;;;6.96;100.00
19086;BME280;9675;51.538;6.728;2023-12-20T08:53:37;101195.91;;;6.99;100.00
19086;BME280;9675;51.538;6.728;2023-12-20T08:56:04;101198.53;;;7.01;100.00
19086;BME280;9675;51.538;6.728;2023-12-20T08:58:33;101196.09;;;7.02;100.00
19086;BME280;9675;51.538;6.728;2023-12-20T09:01:01;101184.84;;;7.00;100.00
19086;BME280;9675;51.538;6.728;2023-12-20T09:03:28;101181.31;;;6.98;100.00
19086;BME280;9675;51.538;6.728;2023-12-20T09:05:55;101181.38;;;7.00;100.00
19086;BME280;9675;51.538;6.728;2023-12-20T09:08:23;101167.72;;;6.99;100.00
19086;BME280;9675;51.538;6.728;2023-12-20T09:10:50;101166.72;;;6.97;100.00
19086;BME280;9675;51.538;6.728;2023-12-20T09:13:17;101165.94;;;6.98;100.00
19086;BME280;9675;51.538;6.728;2023-12-20T09:15:45;101164.16;;;6.97;100.00
19086;BME280;9675;51.538;6.728;2023-12-20T09:18:12;101164.38;;;7.00;100.00
19086;BME280;9675;51.538;6.728;2023-12-20T09:20:39;101161.72;;;6.99;100.00
19086;BME280;9675;51.538;6.728;2023-12-20T09:23:06;101169.28;;;6.97;100.00
19086;BME280;9675;51.538;6.728;2023-12-20T09:25:33;101165.16;;;6.99;100.00
19086;BME280;9675;51.538;6.728;2023-12-20T09:28:00;101165.16;;;6.99;100.00
19086;BME280;9675;51.538;6.728;2023-12-20T09:30:27;101146.25;;;6.97;100.00
19086;BME280;9675;51.538;6.728;2023-12-20T09:32:56;101151.25;;;6.96;100.00
19086;BME280;9675;51.538;6.728;2023-12-20T09:35:23;101156.47;;;6.97;100.00
19086;BME280;9675;51.538;6.728;2023-12-20T09:37:51;101151.38;;;6.97;100.00
19086;BME280;9675;51.538;6.728;2023-12-20T09:40:19;101148.63;;;6.94;100.00
19086;BME280;9675;51.538;6.728;2023-12-20T09:42:55;101161.50;;;6.96;100.00
19086;BME280;9675;51.538;6.728;2023-12-20T09:45:23;101156.38;;;6.96;100.00
19086;BME280;9675;51.538;6.728;2023-12-20T09:47:53;101163.38;;;6.98;100.00
19086;BME280;9675;51.538;6.728;2023-12-20T09:50:22;101150.59;;;6.98;100.00
19086;BME280;9675;51.538;6.728;2023-12-20T09:52:51;101171.06;;;6.98;100.00
19086;BME280;9675;51.538;6.728;2023-12-20T09:55:20;101161.81;;;7.00;100.00
19086;BME280;9675;51.538;6.728;2023-12-20T09:57:47;101164.28;;;6.99;100.00
19086;BME280;9675;51.538;6.728;2023-12-20T10:00:16;101164.38;;;7.00;100.00
19086;BME280;9675;51.538;6.728;2023-12-20T10:02:50;101157.69;;;7.02;100.00
19086;BME280;9675;51.538;6.728;2023-12-20T10:05:18;101164.38;;;7.00;100.00
19086;BME280;9675;51.538;6.728;2023-12-20T10:07:47;101166.91;;;7.00;100.00
19086;BME280;9675;51.538;6.728;2023-12-20T10:10:14;101173.06;;;7.02;100.00
19086;BME280;9675;51.538;6.728;2023-12-20T10:13:02;101173.06;;;7.02;100.00
19086;BME280;9675;51.538;6.728;2023-12-20T10:15:29;101174.72;;;7.02;100.00
19086;BME280;9675;51.538;6.728;2023-12-20T10:17:57;101166.38;;;7.04;100.00
19086;BME280;9675;51.538;6.728;2023-12-20T10:20:24;101147.66;;;7.05;100.00
19086;BME280;9675;51.538;6.728;2023-12-20T10:22:54;101157.09;;;7.06;100.00
19086;BME280;9675;51.538;6.728;2023-12-20T10:25:22;101159.66;;;7.06;100.00
19086;BME280;9675;51.538;6.728;2023-12-20T10:27:51;101150.44;;;7.08;100.00
19086;BME280;9675;51.538;6.728;2023-12-20T10:30:34;101143.63;;;7.09;100.00
19086;BME280;9675;51.538;6.728;2023-12-20T10:33:02;101149.66;;;7.09;100.00
19086;BME280;9675;51.538;6.728;2023-12-20T10:35:29;101153.19;;;7.11;100.00
19086;BME280;9675;51.538;6.728;2023-12-20T10:38:03;101142.16;;;7.12;100.00
19086;BME280;9675;51.538;6.728;2023-12-20T10:40:31;101140.50;;;7.13;100.00
19086;BME280;9675;51.538;6.728;2023-12-20T10:43:01;101140.50;;;7.13;100.00
19086;BME280;9675;51.538;6.728;2023-12-20T10:45:29;101137.25;;;7.15;100.00
19086;BME280;9675;51.538;6.728;2023-12-20T10:47:57;101140.69;;;7.16;100.00
19086;BME280;9675;51.538;6.728;2023-12-20T10:50:27;101133.13;;;7.17;100.00
19086;BME280;9675;51.538;6.728;2023-12-20T10:52:57;101150.28;;;7.18;100.00
19086;BME280;9675;51.538;6.728;2023-12-20T10:55:25;101138.34;;;7.19;100.00
19086;BME280;9675;51.538;6.728;2023-12-20T10:57:54;101150.47;;;7.21;100.00
19086;BME280;9675;51.538;6.728;2023-12-20T11:00:29;101143.56;;;7.20;100.00
19086;BME280;9675;51.538;6.728;2023-12-20T11:03:00;101144.56;;;7.22;100.00
19086;BME280;9675;51.538;6.728;2023-12-20T11:05:36;101138.66;;;7.23;100.00
19086;BME280;9675;51.538;6.728;2023-12-20T11:08:13;101134.44;;;7.24;100.00
19086;BME280;9675;51.538;6.728;2023-12-20T11:11:02;101137.06;;;7.25;100.00
19086;BME280;9675;51.538;6.728;2023-12-20T11:13:37;101126.16;;;7.28;100.00
19086;BME280;9675;51.538;6.728;2023-12-20T11:16:07;101121.03;;;7.28;100.00
19086;BME280;9675;51.538;6.728;2023-12-20T11:18:35;101119.97;;;7.24;100.00
19086;BME280;9675;51.538;6.728;2023-12-20T11:21:04;101128.72;;;7.28;100.00
19086;BME280;9675;51.538;6.728;2023-12-20T11:23:33;101122.81;;;7.29;100.00
19086;BME280;9675;51.538;6.728;2023-12-20T11:26:02;101113.47;;;7.30;100.00
19086;BME280;9675;51.538;6.728;2023-12-20T11:28:30;101130.38;;;7.28;100.00
19086;BME280;9675;51.538;6.728;2023-12-20T11:31:00;101114.53;;;7.33;100.00
19086;BME280;9675;51.538;6.728;2023-12-20T11:33:35;101107.88;;;7.35;100.00
19086;BME280;9675;51.538;6.728;2023-12-20T11:36:03;101107.16;;;7.38;100.00
19086;BME280;9675;51.538;6.728;2023-12-20T11:38:37;101102.03;;;7.38;100.00
19086;BME280;9675;51.538;6.728;2023-12-20T11:41:06;101096.03;;;7.37;100.00
19086;BME280;9675;51.538;6.728;2023-12-20T11:43:36;101109.72;;;7.38;100.00
19086;BME280;9675;51.538;6.728;2023-12-20T11:46:04;101107.16;;;7.38;100.00
19086;BME280;9675;51.538;6.728;2023-12-20T11:48:34;101102.16;;;7.39;100.00
19086;BME280;9675;51.538;6.728;2023-12-20T11:51:08;101098.69;;;7.39;100.00
19086;BME280;9675;51.538;6.728;2023-12-20T11:53:36;101100.47;;;7.40;100.00
19086;BME280;9675;51.538;6.728;2023-12-20T11:56:05;101099.59;;;7.39;100.00
19086;BME280;9675;51.538;6.728;2023-12-20T11:58:33;101094.47;;;7.39;100.00
19086;BME280;9675;51.538;6.728;2023-12-20T12:01:01;101084.00;;;7.36;100.00
19086;BME280;9675;51.538;6.728;2023-12-20T12:03:30;101088.03;;;7.33;100.00
19086;BME280;9675;51.538;6.728;2023-12-20T12:05:57;101083.13;;;7.36;100.00
19086;BME280;9675;51.538;6.728;2023-12-20T12:08:26;101088.25;;;7.36;100.00
19086;BME280;9675;51.538;6.728;2023-12-20T12:10:55;101081.53;;;7.38;100.00
19086;BME280;9675;51.538;6.728;2023-12-20T12:13:22;101074.75;;;7.38;100.00
19086;BME280;9675;51.538;6.728;2023-12-20T12:15:53;101073.88;;;7.38;100.00
19086;BME280;9675;51.538;6.728;2023-12-20T12:18:20;101077.41;;;7.40;100.00
19086;BME280;9675;51.538;6.728;2023-12-20T12:20:47;101079.22;;;7.41;100.00
19086;BME280;9675;51.538;6.728;2023-12-20T12:23:22;101073.25;;;7.42;100.00
19086;BME280;9675;51.538;6.728;2023-12-20T12:25:50;101078.38;;;7.42;100.00
19086;BME280;9675;51.538;6.728;2023-12-20T12:28:18;101074.09;;;7.41;100.00
19086;BME280;9675;51.538;6.728;2023-12-20T12:30:57;101061.34;;;7.42;100.00
19086;BME280;9675;51.538;6.728;2023-12-20T12:33:25;101072.50;;;7.43;100.00
19086;BME280;9675;51.538;6.728;2023-12-20T12:35:52;101064.91;;;7.44;100.00
19086;BME280;9675;51.538;6.728;2023-12-20T12:38:20;101056.34;;;7.44;100.00
19086;BME280;9675;51.538;6.728;2023-12-20T12:40:48;101053.97;;;7.47;100.00
19086;BME280;9675;51.538;6.728;2023-12-20T12:43:15;101055.75;;;7.48;100.00
19086;BME280;9675;51.538;6.728;2023-12-20T12:45:44;101046.28;;;7.47;100.00
19086;BME280;9675;51.538;6.728;2023-12-20T12:48:13;101046.50;;;7.50;100.00
19086;BME280;9675;51.538;6.728;2023-12-20T12:50:40;101055.97;;;7.51;100.00
19086;BME280;9675;51.538;6.728;2023-12-20T12:53:07;101047.38;;;7.50;100.00
19086;BME280;9675;51.538;6.728;2023-12-20T12:55:35;101030.91;;;7.47;100.00
19086;BME280;9675;51.538;6.728;2023-12-20T12:58:02;101038.03;;;7.51;100.00
19086;BME280;9675;51.538;6.728;2023-12-20T13:00:30;101050.72;;;7.49;100.00
19086;BME280;9675;51.538;6.728;2023-12-20T13:02:58;101040.25;;;7.46;100.00
19086;BME280;9675;51.538;6.728;2023-12-20T13:05:25;101039.78;;;7.52;100.00